sensor_id;sensor_type;location;lat;lon;timestamp;P1;durP1;ratioP1;P2;durP2;ratioP2
56321;SDS011;42227;6.376;-10.782;2023-07-16T00:00:39;19.55;;;10.20;;
56321;SDS011;42227;6.376;-10.782;2023-07-16T00:03:08;22.30;;;9.52;;
56321;SDS011;42227;6.376;-10.782;2023-07-16T00:08:08;21.30;;;14.75;;
56321;SDS011;42227;6.376;-10.782;2023-07-16T00:10:36;22.23;;;14.45;;
56321;SDS011;42227;6.376;-10.782;2023-07-16T00:13:05;21.90;;;12.98;;
56321;SDS011;42227;6.376;-10.782;2023-07-16T00:15:34;26.42;;;12.45;;
56321;SDS011;42227;6.376;-10.782;2023-07-16T00:18:03;22.80;;;13.93;;
56321;SDS011;42227;6.376;-10.782;2023-07-16T00:20:32;22.20;;;12.57;;
56321;SDS011;42227;6.376;-10.782;2023-07-16T00:23:00;16.48;;;10.50;;
56321;SDS011;42227;6.376;-10.782;2023-07-16T00:25:29;21.98;;;11.18;;
56321;SDS011;42227;6.376;-10.782;2023-07-16T00:27:57;18.52;;;11.88;;
56321;SDS011;42227;6.376;-10.782;2023-07-16T00:30:26;22.33;;;10.30;;
56321;SDS011;42227;6.376;-10.782;2023-07-16T00:32:54;18.20;;;10.15;;
56321;SDS011;42227;6.376;-10.782;2023-07-16T00:35:23;25.20;;;12.02;;
56321;SDS011;42227;6.376;-10.782;2023-07-16T00:37:51;21.58;;;13.07;;
56321;SDS011;42227;6.376;-10.782;2023-07-16T00:40:20;29.25;;;14.02;;
56321;SDS011;42227;6.376;-10.782;2023-07-16T00:42:48;29.55;;;17.05;;
56321;SDS011;42227;6.376;-10.782;2023-07-16T00:45:16;27.55;;;16.80;;
56321;SDS011;42227;6.376;-10.782;2023-07-16T00:47:45;21.25;;;11.88;;
56321;SDS011;42227;6.376;-10.782;2023-07-16T00:50:13;22.98;;;11.43;;
56321;SDS011;42227;6.376;-10.782;2023-07-16T00:52:42;17.83;;;10.70;;
56321;SDS011;42227;6.376;-10.782;2023-07-16T00:55:11;25.70;;;13.23;;
56321;SDS011;42227;6.376;-10.782;2023-07-16T00:57:40;15.68;;;10.43;;
56321;SDS011;42227;6.376;-10.782;2023-07-16T01:00:08;19.63;;;10.88;;
56321;SDS011;42227;6.376;-10.782;2023-07-16T01:02:37;11.93;;;8.82;;
56321;SDS011;42227;6.376;-10.782;2023-07-16T01:05:06;14.93;;;9.38;;
56321;SDS011;42227;6.376;-10.782;2023-07-16T01:07:35;17.92;;;10.38;;
56321;SDS011;42227;6.376;-10.782;2023-07-16T01:10:06;25.80;;;12.33;;
56321;SDS011;42227;6.376;-10.782;2023-07-16T01:12:36;26.05;;;11.88;;
56321;SDS011;42227;6.376;-10.782;2023-07-16T01:15:04;17.65;;;11.55;;
56321;SDS011;42227;6.376;-10.782;2023-07-16T01:17:33;20.58;;;10.48;;
56321;SDS011;42227;6.376;-10.782;2023-07-16T01:20:02;24.02;;;12.20;;
56321;SDS011;42227;6.376;-10.782;2023-07-16T01:30:55;14.32;;;9.68;;
56321;SDS011;42227;6.376;-10.782;2023-07-16T01:33:25;19.48;;;10.10;;
56321;SDS011;42227;6.376;-10.782;2023-07-16T01:35:54;18.30;;;10.00;;
56321;SDS011;42227;6.376;-10.782;2023-07-16T01:38:24;19.27;;;8.52;;
56321;SDS011;42227;6.376;-10.782;2023-07-16T01:40:53;14.25;;;8.48;;
56321;SDS011;42227;6.376;-10.782;2023-07-16T01:43:21;12.27;;;8.63;;
56321;SDS011;42227;6.376;-10.782;2023-07-16T01:45:49;12.27;;;8.90;;
56321;SDS011;42227;6.376;-10.782;2023-07-16T01:48:29;11.95;;;8.88;;
56321;SDS011;42227;6.376;-10.782;2023-07-16T01:51:02;14.05;;;8.95;;
56321;SDS011;42227;6.376;-10.782;2023-07-16T01:53:31;11.30;;;8.80;;
56321;SDS011;42227;6.376;-10.782;2023-07-16T01:56:02;13.32;;;7.65;;
56321;SDS011;42227;6.376;-10.782;2023-07-16T01:58:31;11.38;;;8.50;;
56321;SDS011;42227;6.376;-10.782;2023-07-16T02:01:00;15.80;;;9.30;;
56321;SDS011;42227;6.376;-10.782;2023-07-16T02:03:29;9.38;;;6.90;;
56321;SDS011;42227;6.376;-10.782;2023-07-16T02:05:58;14.10;;;8.57;;
56321;SDS011;42227;6.376;-10.782;2023-07-16T02:08:26;12.07;;;9.20;;
56321;SDS011;42227;6.376;-10.782;2023-07-16T02:14:11;15.35;;;9.35;;
56321;SDS011;42227;6.376;-10.782;2023-07-16T02:16:40;9.98;;;8.75;;
56321;SDS011;42227;6.376;-10.782;2023-07-16T02:19:10;11.75;;;9.02;;
56321;SDS011;42227;6.376;-10.782;2023-07-16T02:21:38;10.15;;;8.40;;
56321;SDS011;42227;6.376;-10.782;2023-07-16T02:24:07;17.33;;;9.57;;
56321;SDS011;42227;6.376;-10.782;2023-07-16T02:26:35;14.68;;;9.73;;
56321;SDS011;42227;6.376;-10.782;2023-07-16T02:29:04;17.35;;;9.73;;
56321;SDS011;42227;6.376;-10.782;2023-07-16T02:31:32;16.83;;;11.85;;
56321;SDS011;42227;6.376;-10.782;2023-07-16T02:34:01;14.43;;;9.65;;
56321;SDS011;42227;6.376;-10.782;2023-07-16T02:36:32;21.60;;;10.55;;
56321;SDS011;42227;6.376;-10.782;2023-07-16T02:39:01;16.67;;;11.10;;
56321;SDS011;42227;6.376;-10.782;2023-07-16T02:41:29;19.25;;;10.25;;
56321;SDS011;42227;6.376;-10.782;2023-07-16T02:44:01;15.52;;;8.70;;
56321;SDS011;42227;6.376;-10.782;2023-07-16T02:46:32;13.57;;;9.15;;
56321;SDS011;42227;6.376;-10.782;2023-07-16T02:49:01;15.00;;;9.05;;
56321;SDS011;42227;6.376;-10.782;2023-07-16T02:51:30;18.02;;;10.13;;
56321;SDS011;42227;6.376;-10.782;2023-07-16T02:53:58;13.82;;;10.23;;
56321;SDS011;42227;6.376;-10.782;2023-07-16T02:56:27;16.88;;;11.80;;
56321;SDS011;42227;6.376;-10.782;2023-07-16T02:58:55;22.65;;;11.57;;
56321;SDS011;42227;6.376;-10.782;2023-07-16T03:01:24;17.73;;;11.00;;
56321;SDS011;42227;6.376;-10.782;2023-07-16T03:03:53;14.32;;;10.27;;
56321;SDS011;42227;6.376;-10.782;2023-07-16T03:06:22;21.83;;;11.27;;
56321;SDS011;42227;6.376;-10.782;2023-07-16T03:08:51;14.48;;;9.73;;
56321;SDS011;42227;6.376;-10.782;2023-07-16T03:11:19;13.70;;;8.88;;
56321;SDS011;42227;6.376;-10.782;2023-07-16T03:13:48;12.63;;;8.23;;
56321;SDS011;42227;6.376;-10.782;2023-07-16T03:16:17;11.68;;;7.70;;
56321;SDS011;42227;6.376;-10.782;2023-07-16T03:18:45;14.48;;;9.68;;
56321;SDS011;42227;6.376;-10.782;2023-07-16T03:21:14;10.82;;;9.18;;
56321;SDS011;42227;6.376;-10.782;2023-07-16T03:23:42;10.27;;;7.68;;
56321;SDS011;42227;6.376;-10.782;2023-07-16T03:26:11;15.18;;;7.93;;
56321;SDS011;42227;6.376;-10.782;2023-07-16T03:28:40;17.08;;;8.18;;
56321;SDS011;42227;6.376;-10.782;2023-07-16T03:31:11;12.77;;;7.70;;
56321;SDS011;42227;6.376;-10.782;2023-07-16T03:33:42;21.65;;;7.32;;
56321;SDS011;42227;6.376;-10.782;2023-07-16T03:36:11;14.52;;;7.30;;
56321;SDS011;42227;6.376;-10.782;2023-07-16T03:38:41;15.23;;;8.02;;
56321;SDS011;42227;6.376;-10.782;2023-07-16T03:41:11;13.02;;;7.38;;
56321;SDS011;42227;6.376;-10.782;2023-07-16T03:43:39;11.02;;;7.47;;
56321;SDS011;42227;6.376;-10.782;2023-07-16T03:46:15;12.07;;;7.32;;
56321;SDS011;42227;6.376;-10.782;2023-07-16T03:48:44;13.27;;;7.80;;
56321;SDS011;42227;6.376;-10.782;2023-07-16T03:51:13;13.82;;;7.93;;
56321;SDS011;42227;6.376;-10.782;2023-07-16T03:53:42;10.82;;;8.13;;
56321;SDS011;42227;6.376;-10.782;2023-07-16T03:56:10;12.68;;;8.13;;
56321;SDS011;42227;6.376;-10.782;2023-07-16T03:58:39;14.68;;;7.80;;
56321;SDS011;42227;6.376;-10.782;2023-07-16T04:01:08;18.40;;;7.97;;
56321;SDS011;42227;6.376;-10.782;2023-07-16T04:03:36;15.45;;;8.93;;
56321;SDS011;42227;6.376;-10.782;2023-07-16T04:06:06;12.35;;;8.93;;
56321;SDS011;42227;6.376;-10.782;2023-07-16T04:08:36;14.90;;;9.30;;
56321;SDS011;42227;6.376;-10.782;2023-07-16T04:11:04;18.35;;;10.55;;
56321;SDS011;42227;6.376;-10.782;2023-07-16T04:13:33;23.80;;;11.40;;
56321;SDS011;42227;6.376;-10.782;2023-07-16T04:16:02;16.60;;;10.10;;
56321;SDS011;42227;6.376;-10.782;2023-07-16T04:18:30;13.70;;;10.40;;
56321;SDS011;42227;6.376;-10.782;2023-07-16T04:20:59;17.65;;;9.35;;
56321;SDS011;42227;6.376;-10.782;2023-07-16T04:23:27;13.60;;;9.55;;
56321;SDS011;42227;6.376;-10.782;2023-07-16T04:25:56;15.20;;;9.45;;
56321;SDS011;42227;6.376;-10.782;2023-07-16T04:28:24;14.35;;;8.00;;
56321;SDS011;42227;6.376;-10.782;2023-07-16T04:30:53;16.73;;;6.57;;
56321;SDS011;42227;6.376;-10.782;2023-07-16T04:33:21;11.88;;;7.00;;
56321;SDS011;42227;6.376;-10.782;2023-07-16T04:35:49;10.48;;;7.13;;
56321;SDS011;42227;6.376;-10.782;2023-07-16T04:38:18;12.35;;;8.30;;
56321;SDS011;42227;6.376;-10.782;2023-07-16T04:40:46;16.88;;;9.40;;
56321;SDS011;42227;6.376;-10.782;2023-07-16T04:43:15;17.45;;;9.43;;
56321;SDS011;42227;6.376;-10.782;2023-07-16T04:45:44;19.35;;;9.80;;
56321;SDS011;42227;6.376;-10.782;2023-07-16T04:48:12;16.02;;;9.43;;
56321;SDS011;42227;6.376;-10.782;2023-07-16T04:50:41;13.60;;;8.90;;
56321;SDS011;42227;6.376;-10.782;2023-07-16T04:53:09;15.45;;;8.13;;
56321;SDS011;42227;6.376;-10.782;2023-07-16T04:55:38;14.63;;;9.38;;
56321;SDS011;42227;6.376;-10.782;2023-07-16T04:58:07;17.25;;;9.05;;
56321;SDS011;42227;6.376;-10.782;2023-07-16T05:00:37;11.43;;;7.38;;
56321;SDS011;42227;6.376;-10.782;2023-07-16T05:03:05;12.90;;;8.95;;
56321;SDS011;42227;6.376;-10.782;2023-07-16T05:05:34;13.38;;;8.75;;
56321;SDS011;42227;6.376;-10.782;2023-07-16T05:08:03;14.20;;;8.75;;
56321;SDS011;42227;6.376;-10.782;2023-07-16T05:10:32;17.67;;;9.98;;
56321;SDS011;42227;6.376;-10.782;2023-07-16T05:13:01;15.45;;;10.48;;
56321;SDS011;42227;6.376;-10.782;2023-07-16T05:15:31;14.35;;;8.82;;
56321;SDS011;42227;6.376;-10.782;2023-07-16T05:18:00;14.00;;;9.55;;
56321;SDS011;42227;6.376;-10.782;2023-07-16T05:20:29;17.65;;;10.15;;
56321;SDS011;42227;6.376;-10.782;2023-07-16T05:22:58;15.20;;;9.13;;
56321;SDS011;42227;6.376;-10.782;2023-07-16T05:25:26;14.52;;;9.05;;
56321;SDS011;42227;6.376;-10.782;2023-07-16T05:27:58;15.98;;;9.07;;
56321;SDS011;42227;6.376;-10.782;2023-07-16T05:30:27;18.60;;;9.18;;
56321;SDS011;42227;6.376;-10.782;2023-07-16T05:32:55;15.57;;;9.40;;
56321;SDS011;42227;6.376;-10.782;2023-07-16T05:35:24;13.48;;;8.43;;
56321;SDS011;42227;6.376;-10.782;2023-07-16T05:37:52;12.15;;;9.32;;
56321;SDS011;42227;6.376;-10.782;2023-07-16T05:40:21;13.23;;;9.98;;
56321;SDS011;42227;6.376;-10.782;2023-07-16T05:42:50;14.38;;;9.23;;
56321;SDS011;42227;6.376;-10.782;2023-07-16T05:45:20;12.40;;;8.40;;
56321;SDS011;42227;6.376;-10.782;2023-07-16T05:47:48;17.30;;;9.52;;
56321;SDS011;42227;6.376;-10.782;2023-07-16T05:50:17;15.65;;;10.38;;
56321;SDS011;42227;6.376;-10.782;2023-07-16T05:52:46;18.13;;;11.23;;
56321;SDS011;42227;6.376;-10.782;2023-07-16T05:55:14;17.08;;;10.77;;
56321;SDS011;42227;6.376;-10.782;2023-07-16T05:57:43;12.48;;;9.68;;
56321;SDS011;42227;6.376;-10.782;2023-07-16T06:00:11;14.30;;;10.98;;
56321;SDS011;42227;6.376;-10.782;2023-07-16T06:02:41;20.13;;;11.20;;
56321;SDS011;42227;6.376;-10.782;2023-07-16T06:05:10;13.05;;;10.55;;
56321;SDS011;42227;6.376;-10.782;2023-07-16T06:07:39;14.38;;;10.02;;
56321;SDS011;42227;6.376;-10.782;2023-07-16T06:10:07;11.07;;;9.55;;
56321;SDS011;42227;6.376;-10.782;2023-07-16T06:12:36;13.32;;;10.50;;
56321;SDS011;42227;6.376;-10.782;2023-07-16T06:15:05;19.40;;;11.98;;
56321;SDS011;42227;6.376;-10.782;2023-07-16T06:17:34;17.17;;;12.02;;
56321;SDS011;42227;6.376;-10.782;2023-07-16T06:20:02;11.55;;;10.30;;
56321;SDS011;42227;6.376;-10.782;2023-07-16T06:22:31;12.05;;;10.75;;
56321;SDS011;42227;6.376;-10.782;2023-07-16T06:25:00;17.17;;;11.27;;
56321;SDS011;42227;6.376;-10.782;2023-07-16T06:27:29;13.32;;;10.68;;
56321;SDS011;42227;6.376;-10.782;2023-07-16T06:29:57;15.07;;;10.10;;
56321;SDS011;42227;6.376;-10.782;2023-07-16T06:32:25;13.80;;;10.00;;
56321;SDS011;42227;6.376;-10.782;2023-07-16T06:34:54;15.40;;;9.73;;
56321;SDS011;42227;6.376;-10.782;2023-07-16T06:37:22;16.08;;;9.13;;
56321;SDS011;42227;6.376;-10.782;2023-07-16T06:39:51;10.07;;;8.90;;
56321;SDS011;42227;6.376;-10.782;2023-07-16T06:42:19;21.15;;;10.32;;
56321;SDS011;42227;6.376;-10.782;2023-07-16T06:44:48;16.55;;;10.65;;
56321;SDS011;42227;6.376;-10.782;2023-07-16T06:47:17;14.02;;;10.48;;
56321;SDS011;42227;6.376;-10.782;2023-07-16T06:49:45;14.70;;;10.40;;
56321;SDS011;42227;6.376;-10.782;2023-07-16T06:52:20;15.73;;;8.60;;
56321;SDS011;42227;6.376;-10.782;2023-07-16T06:54:49;15.32;;;9.45;;
56321;SDS011;42227;6.376;-10.782;2023-07-16T06:57:17;21.23;;;10.63;;
56321;SDS011;42227;6.376;-10.782;2023-07-16T06:59:46;24.98;;;11.73;;
56321;SDS011;42227;6.376;-10.782;2023-07-16T07:02:15;26.13;;;15.75;;
56321;SDS011;42227;6.376;-10.782;2023-07-16T07:04:44;46.80;;;41.35;;
56321;SDS011;42227;6.376;-10.782;2023-07-16T07:07:13;60.65;;;54.42;;
56321;SDS011;42227;6.376;-10.782;2023-07-16T07:09:41;43.05;;;35.28;;
56321;SDS011;42227;6.376;-10.782;2023-07-16T07:12:10;29.48;;;24.52;;
56321;SDS011;42227;6.376;-10.782;2023-07-16T07:14:38;29.00;;;18.65;;
56321;SDS011;42227;6.376;-10.782;2023-07-16T07:17:07;23.77;;;14.57;;
56321;SDS011;42227;6.376;-10.782;2023-07-16T07:19:35;23.35;;;15.05;;
56321;SDS011;42227;6.376;-10.782;2023-07-16T07:22:04;21.05;;;13.95;;
56321;SDS011;42227;6.376;-10.782;2023-07-16T07:24:33;18.38;;;14.15;;
56321;SDS011;42227;6.376;-10.782;2023-07-16T07:27:01;20.30;;;12.80;;
56321;SDS011;42227;6.376;-10.782;2023-07-16T07:29:30;16.25;;;12.52;;
56321;SDS011;42227;6.376;-10.782;2023-07-16T07:31:58;16.80;;;12.40;;
56321;SDS011;42227;6.376;-10.782;2023-07-16T07:34:27;23.95;;;19.25;;
56321;SDS011;42227;6.376;-10.782;2023-07-16T07:36:55;31.10;;;18.80;;
56321;SDS011;42227;6.376;-10.782;2023-07-16T07:39:24;27.65;;;21.63;;
56321;SDS011;42227;6.376;-10.782;2023-07-16T07:41:52;23.25;;;19.20;;
56321;SDS011;42227;6.376;-10.782;2023-07-16T07:44:20;19.75;;;13.77;;
56321;SDS011;42227;6.376;-10.782;2023-07-16T07:46:49;15.13;;;11.10;;
56321;SDS011;42227;6.376;-10.782;2023-07-16T07:49:18;21.90;;;14.77;;
56321;SDS011;42227;6.376;-10.782;2023-07-16T07:51:46;18.40;;;13.45;;
56321;SDS011;42227;6.376;-10.782;2023-07-16T07:54:15;17.10;;;11.93;;
56321;SDS011;42227;6.376;-10.782;2023-07-16T07:56:45;16.52;;;9.30;;
56321;SDS011;42227;6.376;-10.782;2023-07-16T07:59:13;8.32;;;6.75;;
56321;SDS011;42227;6.376;-10.782;2023-07-16T08:01:42;8.57;;;5.65;;
56321;SDS011;42227;6.376;-10.782;2023-07-16T08:04:10;7.60;;;6.07;;
56321;SDS011;42227;6.376;-10.782;2023-07-16T08:06:39;7.72;;;5.38;;
56321;SDS011;42227;6.376;-10.782;2023-07-16T08:09:08;10.60;;;5.80;;
56321;SDS011;42227;6.376;-10.782;2023-07-16T08:11:36;9.93;;;4.97;;
56321;SDS011;42227;6.376;-10.782;2023-07-16T08:14:05;9.38;;;5.43;;
56321;SDS011;42227;6.376;-10.782;2023-07-16T08:16:33;5.88;;;4.60;;
56321;SDS011;42227;6.376;-10.782;2023-07-16T08:19:02;8.27;;;5.18;;
56321;SDS011;42227;6.376;-10.782;2023-07-16T08:21:31;9.20;;;4.55;;
56321;SDS011;42227;6.376;-10.782;2023-07-16T08:24:00;7.88;;;4.28;;
56321;SDS011;42227;6.376;-10.782;2023-07-16T08:26:28;7.60;;;4.72;;
56321;SDS011;42227;6.376;-10.782;2023-07-16T08:28:57;5.38;;;3.95;;
56321;SDS011;42227;6.376;-10.782;2023-07-16T08:31:25;7.47;;;4.55;;
56321;SDS011;42227;6.376;-10.782;2023-07-16T08:33:54;8.55;;;4.75;;
56321;SDS011;42227;6.376;-10.782;2023-07-16T08:36:24;13.15;;;5.95;;
56321;SDS011;42227;6.376;-10.782;2023-07-16T08:38:53;7.43;;;5.40;;
56321;SDS011;42227;6.376;-10.782;2023-07-16T08:41:22;7.30;;;4.88;;
56321;SDS011;42227;6.376;-10.782;2023-07-16T08:43:50;9.15;;;5.18;;
56321;SDS011;42227;6.376;-10.782;2023-07-16T08:46:19;5.63;;;4.63;;
56321;SDS011;42227;6.376;-10.782;2023-07-16T08:48:47;8.55;;;4.93;;
56321;SDS011;42227;6.376;-10.782;2023-07-16T08:51:17;5.50;;;4.47;;
56321;SDS011;42227;6.376;-10.782;2023-07-16T08:53:48;10.40;;;4.68;;
56321;SDS011;42227;6.376;-10.782;2023-07-16T08:56:16;6.15;;;4.78;;
56321;SDS011;42227;6.376;-10.782;2023-07-16T08:58:46;6.07;;;4.47;;
56321;SDS011;42227;6.376;-10.782;2023-07-16T09:01:16;7.82;;;3.63;;
56321;SDS011;42227;6.376;-10.782;2023-07-16T09:03:49;5.60;;;3.80;;
56321;SDS011;42227;6.376;-10.782;2023-07-16T09:06:17;5.15;;;3.83;;
56321;SDS011;42227;6.376;-10.782;2023-07-16T09:08:46;3.85;;;3.15;;
56321;SDS011;42227;6.376;-10.782;2023-07-16T09:11:15;9.38;;;3.30;;
56321;SDS011;42227;6.376;-10.782;2023-07-16T09:13:44;9.15;;;4.43;;
56321;SDS011;42227;6.376;-10.782;2023-07-16T09:16:13;3.65;;;3.10;;
56321;SDS011;42227;6.376;-10.782;2023-07-16T09:18:42;5.10;;;3.28;;
56321;SDS011;42227;6.376;-10.782;2023-07-16T09:21:10;5.32;;;3.13;;
56321;SDS011;42227;6.376;-10.782;2023-07-16T09:23:39;2.20;;;1.88;;
56321;SDS011;42227;6.376;-10.782;2023-07-16T09:26:09;2.88;;;2.10;;
56321;SDS011;42227;6.376;-10.782;2023-07-16T09:28:37;4.85;;;2.60;;
56321;SDS011;42227;6.376;-10.782;2023-07-16T09:31:06;3.38;;;2.35;;
56321;SDS011;42227;6.376;-10.782;2023-07-16T09:33:35;3.65;;;2.75;;
56321;SDS011;42227;6.376;-10.782;2023-07-16T09:36:04;4.00;;;3.03;;
56321;SDS011;42227;6.376;-10.782;2023-07-16T09:38:32;4.50;;;2.92;;
56321;SDS011;42227;6.376;-10.782;2023-07-16T09:41:02;4.95;;;3.42;;
56321;SDS011;42227;6.376;-10.782;2023-07-16T09:43:31;5.07;;;3.88;;
56321;SDS011;42227;6.376;-10.782;2023-07-16T09:46:02;6.95;;;4.40;;
56321;SDS011;42227;6.376;-10.782;2023-07-16T09:48:31;6.00;;;4.75;;
56321;SDS011;42227;6.376;-10.782;2023-07-16T09:50:59;5.90;;;5.05;;
56321;SDS011;42227;6.376;-10.782;2023-07-16T09:53:28;7.65;;;4.57;;
56321;SDS011;42227;6.376;-10.782;2023-07-16T09:56:06;8.48;;;5.95;;
56321;SDS011;42227;6.376;-10.782;2023-07-16T09:58:44;8.75;;;5.45;;
56321;SDS011;42227;6.376;-10.782;2023-07-16T10:01:13;11.10;;;7.13;;
56321;SDS011;42227;6.376;-10.782;2023-07-16T10:03:49;10.55;;;6.55;;
56321;SDS011;42227;6.376;-10.782;2023-07-16T10:06:18;8.00;;;7.15;;
56321;SDS011;42227;6.376;-10.782;2023-07-16T10:08:50;10.10;;;7.35;;
56321;SDS011;42227;6.376;-10.782;2023-07-16T10:11:20;9.57;;;6.82;;
56321;SDS011;42227;6.376;-10.782;2023-07-16T10:13:50;10.23;;;6.25;;
56321;SDS011;42227;6.376;-10.782;2023-07-16T10:16:22;11.23;;;7.10;;
56321;SDS011;42227;6.376;-10.782;2023-07-16T10:18:51;8.18;;;5.72;;
56321;SDS011;42227;6.376;-10.782;2023-07-16T10:21:23;9.80;;;6.10;;
56321;SDS011;42227;6.376;-10.782;2023-07-16T10:24:01;8.75;;;7.03;;
56321;SDS011;42227;6.376;-10.782;2023-07-16T10:26:30;10.48;;;5.28;;
56321;SDS011;42227;6.376;-10.782;2023-07-16T10:28:59;8.45;;;5.35;;
56321;SDS011;42227;6.376;-10.782;2023-07-16T10:31:27;7.60;;;5.20;;
56321;SDS011;42227;6.376;-10.782;2023-07-16T10:34:03;9.60;;;6.05;;
56321;SDS011;42227;6.376;-10.782;2023-07-16T10:36:39;8.27;;;5.65;;
56321;SDS011;42227;6.376;-10.782;2023-07-16T10:39:08;8.65;;;5.60;;
56321;SDS011;42227;6.376;-10.782;2023-07-16T10:41:37;8.50;;;6.22;;
56321;SDS011;42227;6.376;-10.782;2023-07-16T10:44:08;13.18;;;7.07;;
56321;SDS011;42227;6.376;-10.782;2023-07-16T10:46:41;10.13;;;5.25;;
56321;SDS011;42227;6.376;-10.782;2023-07-16T10:49:10;6.45;;;4.70;;
56321;SDS011;42227;6.376;-10.782;2023-07-16T10:51:38;7.60;;;4.85;;
56321;SDS011;42227;6.376;-10.782;2023-07-16T10:54:07;5.55;;;3.42;;
56321;SDS011;42227;6.376;-10.782;2023-07-16T10:56:36;8.60;;;4.32;;
56321;SDS011;42227;6.376;-10.782;2023-07-16T10:59:04;7.10;;;4.40;;
56321;SDS011;42227;6.376;-10.782;2023-07-16T11:01:36;8.57;;;4.57;;
56321;SDS011;42227;6.376;-10.782;2023-07-16T11:04:08;4.38;;;3.67;;
56321;SDS011;42227;6.376;-10.782;2023-07-16T11:06:37;5.22;;;3.28;;
56321;SDS011;42227;6.376;-10.782;2023-07-16T11:09:07;4.45;;;3.38;;
56321;SDS011;42227;6.376;-10.782;2023-07-16T11:11:36;6.30;;;3.13;;
56321;SDS011;42227;6.376;-10.782;2023-07-16T11:14:07;5.18;;;3.55;;
56321;SDS011;42227;6.376;-10.782;2023-07-16T11:16:36;5.20;;;3.17;;
56321;SDS011;42227;6.376;-10.782;2023-07-16T11:19:05;5.25;;;3.20;;
56321;SDS011;42227;6.376;-10.782;2023-07-16T11:21:34;4.88;;;3.30;;
56321;SDS011;42227;6.376;-10.782;2023-07-16T11:24:08;8.43;;;3.33;;
56321;SDS011;42227;6.376;-10.782;2023-07-16T11:26:51;6.30;;;4.35;;
56321;SDS011;42227;6.376;-10.782;2023-07-16T11:29:21;9.25;;;3.17;;
56321;SDS011;42227;6.376;-10.782;2023-07-16T11:31:51;5.40;;;2.85;;
56321;SDS011;42227;6.376;-10.782;2023-07-16T11:34:20;5.50;;;3.47;;
56321;SDS011;42227;6.376;-10.782;2023-07-16T11:36:49;4.60;;;2.80;;
56321;SDS011;42227;6.376;-10.782;2023-07-16T11:39:18;6.07;;;3.00;;
56321;SDS011;42227;6.376;-10.782;2023-07-16T11:41:56;6.38;;;2.75;;
56321;SDS011;42227;6.376;-10.782;2023-07-16T11:44:25;5.18;;;3.35;;
56321;SDS011;42227;6.376;-10.782;2023-07-16T11:47:00;5.45;;;3.35;;
56321;SDS011;42227;6.376;-10.782;2023-07-16T11:49:30;4.45;;;3.38;;
56321;SDS011;42227;6.376;-10.782;2023-07-16T11:51:59;9.88;;;4.50;;
56321;SDS011;42227;6.376;-10.782;2023-07-16T11:54:27;8.13;;;3.90;;
56321;SDS011;42227;6.376;-10.782;2023-07-16T11:56:56;5.20;;;3.85;;
56321;SDS011;42227;6.376;-10.782;2023-07-16T11:59:25;5.70;;;3.72;;
56321;SDS011;42227;6.376;-10.782;2023-07-16T12:01:53;5.20;;;3.90;;
56321;SDS011;42227;6.376;-10.782;2023-07-16T12:04:22;8.65;;;4.15;;
56321;SDS011;42227;6.376;-10.782;2023-07-16T12:06:51;5.95;;;3.55;;
56321;SDS011;42227;6.376;-10.782;2023-07-16T12:09:19;5.40;;;3.55;;
56321;SDS011;42227;6.376;-10.782;2023-07-16T12:11:48;3.47;;;2.72;;
56321;SDS011;42227;6.376;-10.782;2023-07-16T12:14:16;4.15;;;2.45;;
56321;SDS011;42227;6.376;-10.782;2023-07-16T12:16:45;5.47;;;2.17;;
56321;SDS011;42227;6.376;-10.782;2023-07-16T12:19:14;4.10;;;2.90;;
56321;SDS011;42227;6.376;-10.782;2023-07-16T12:21:43;2.85;;;2.33;;
56321;SDS011;42227;6.376;-10.782;2023-07-16T12:24:11;3.42;;;2.85;;
56321;SDS011;42227;6.376;-10.782;2023-07-16T12:26:40;3.78;;;3.30;;
56321;SDS011;42227;6.376;-10.782;2023-07-16T12:29:09;2.70;;;2.10;;
56321;SDS011;42227;6.376;-10.782;2023-07-16T12:31:37;4.75;;;2.58;;
56321;SDS011;42227;6.376;-10.782;2023-07-16T12:34:06;7.60;;;3.05;;
56321;SDS011;42227;6.376;-10.782;2023-07-16T12:36:34;5.22;;;3.45;;
56321;SDS011;42227;6.376;-10.782;2023-07-16T12:39:03;11.15;;;3.95;;
56321;SDS011;42227;6.376;-10.782;2023-07-16T12:41:32;7.00;;;3.03;;
56321;SDS011;42227;6.376;-10.782;2023-07-16T12:44:00;5.32;;;3.38;;
56321;SDS011;42227;6.376;-10.782;2023-07-16T12:46:29;4.13;;;3.33;;
56321;SDS011;42227;6.376;-10.782;2023-07-16T12:48:58;5.85;;;3.25;;
56321;SDS011;42227;6.376;-10.782;2023-07-16T12:51:27;8.02;;;3.25;;
56321;SDS011;42227;6.376;-10.782;2023-07-16T12:53:55;3.85;;;2.80;;
56321;SDS011;42227;6.376;-10.782;2023-07-16T12:56:24;6.53;;;3.25;;
56321;SDS011;42227;6.376;-10.782;2023-07-16T12:58:52;4.88;;;3.17;;
56321;SDS011;42227;6.376;-10.782;2023-07-16T13:01:21;6.82;;;3.25;;
56321;SDS011;42227;6.376;-10.782;2023-07-16T13:03:50;4.28;;;3.15;;
56321;SDS011;42227;6.376;-10.782;2023-07-16T13:06:18;7.75;;;3.53;;
56321;SDS011;42227;6.376;-10.782;2023-07-16T13:08:47;5.63;;;3.20;;
56321;SDS011;42227;6.376;-10.782;2023-07-16T13:11:15;6.85;;;4.10;;
56321;SDS011;42227;6.376;-10.782;2023-07-16T13:13:44;6.32;;;3.75;;
56321;SDS011;42227;6.376;-10.782;2023-07-16T13:16:12;5.75;;;3.80;;
56321;SDS011;42227;6.376;-10.782;2023-07-16T13:18:42;11.27;;;4.43;;
56321;SDS011;42227;6.376;-10.782;2023-07-16T13:21:10;7.45;;;3.05;;
56321;SDS011;42227;6.376;-10.782;2023-07-16T13:23:39;11.27;;;4.20;;
56321;SDS011;42227;6.376;-10.782;2023-07-16T13:26:07;6.10;;;3.28;;
56321;SDS011;42227;6.376;-10.782;2023-07-16T13:28:36;7.35;;;4.68;;
56321;SDS011;42227;6.376;-10.782;2023-07-16T13:31:05;6.15;;;3.15;;
56321;SDS011;42227;6.376;-10.782;2023-07-16T13:33:34;10.80;;;3.70;;
56321;SDS011;42227;6.376;-10.782;2023-07-16T13:36:03;5.30;;;3.53;;
56321;SDS011;42227;6.376;-10.782;2023-07-16T13:38:34;6.13;;;4.67;;
56321;SDS011;42227;6.376;-10.782;2023-07-16T13:41:03;7.70;;;4.03;;
56321;SDS011;42227;6.376;-10.782;2023-07-16T13:43:31;8.18;;;5.40;;
56321;SDS011;42227;6.376;-10.782;2023-07-16T13:46:00;12.80;;;6.28;;
56321;SDS011;42227;6.376;-10.782;2023-07-16T13:48:29;10.85;;;8.18;;
56321;SDS011;42227;6.376;-10.782;2023-07-16T13:51:14;4.43;;;2.90;;
56321;SDS011;42227;6.376;-10.782;2023-07-16T13:53:42;5.68;;;4.70;;
56321;SDS011;42227;6.376;-10.782;2023-07-16T13:56:11;7.20;;;3.90;;
56321;SDS011;42227;6.376;-10.782;2023-07-16T13:58:40;12.40;;;10.02;;
56321;SDS011;42227;6.376;-10.782;2023-07-16T14:01:08;6.47;;;3.83;;
56321;SDS011;42227;6.376;-10.782;2023-07-16T14:03:37;10.68;;;4.88;;
56321;SDS011;42227;6.376;-10.782;2023-07-16T14:06:06;10.95;;;5.50;;
56321;SDS011;42227;6.376;-10.782;2023-07-16T14:08:34;6.57;;;3.67;;
56321;SDS011;42227;6.376;-10.782;2023-07-16T14:11:03;6.45;;;3.53;;
56321;SDS011;42227;6.376;-10.782;2023-07-16T14:13:32;8.30;;;4.20;;
56321;SDS011;42227;6.376;-10.782;2023-07-16T14:16:00;7.20;;;4.55;;
56321;SDS011;42227;6.376;-10.782;2023-07-16T14:18:29;16.50;;;10.45;;
56321;SDS011;42227;6.376;-10.782;2023-07-16T14:20:58;8.63;;;5.32;;
56321;SDS011;42227;6.376;-10.782;2023-07-16T14:23:26;10.63;;;4.63;;
56321;SDS011;42227;6.376;-10.782;2023-07-16T14:25:55;8.32;;;5.43;;
56321;SDS011;42227;6.376;-10.782;2023-07-16T14:28:23;9.20;;;5.28;;
56321;SDS011;42227;6.376;-10.782;2023-07-16T14:30:52;17.75;;;9.45;;
56321;SDS011;42227;6.376;-10.782;2023-07-16T14:33:21;14.88;;;8.77;;
56321;SDS011;42227;6.376;-10.782;2023-07-16T14:35:49;13.38;;;6.95;;
56321;SDS011;42227;6.376;-10.782;2023-07-16T14:38:17;22.33;;;13.70;;
56321;SDS011;42227;6.376;-10.782;2023-07-16T14:40:46;7.85;;;6.10;;
56321;SDS011;42227;6.376;-10.782;2023-07-16T14:43:15;11.25;;;6.00;;
56321;SDS011;42227;6.376;-10.782;2023-07-16T14:45:43;21.50;;;13.38;;
56321;SDS011;42227;6.376;-10.782;2023-07-16T14:48:12;12.95;;;7.35;;